Bessemer, Michigan
Current Conditions -  °F | °C
As of 3:15 PM on Saturday 22 Nov 2014 (Local Time) from KIWD Reporting Station
Overcast Overcast  
Wind Chill: -2°   Ceiling: 1300
Heat Index:   Visibility: 8mi
Dew Point:   Wind: 9mph
Humidity: 87%   Direction: 210°SSW
Pressure: 29.65"   Gusts: NA
Location:  46.48°N, 90.05°W
Report Text: KIWD 222115Z AUTO 21008KT 8SM OVC013 02/00 A2965 RMK AO1
Loading
Personal Weather Stations






























Interactive Weather Map New forecast layout! Learn more

10-Day Weather Forecast

Advertisements
Track Severe Weather on mobile